Time;durP1;ratioP1;P1;durP2;ratioP2;P2;SDS_P1;SDS_P2;PMS_P1;PMS_P2;Temp;Humidity;BMP_temperature;BMP_pressure;BME280_temperature;BME280_humidity;BME280_pressure;Samples;Min_cycle;Max_cycle;Signal;HPM_P1;HPM_P2
2021/11/19 00:01:32;;;;;;;9.10;7.80;;;;;;;7.28;78.52;100081.66;227788;1198;140087;-71
2021/11/19 00:06:36;;;;;;;10.70;4.60;;;;;;;7.31;78.70;100076.85;229164;1198;139955;-70
2021/11/19 00:11:42;;;;;;;10.40;7.40;;;;;;;7.27;78.91;100067.71;227970;1199;141805;-70
2021/11/19 00:16:47;;;;;;;17.80;8.10;;;;;;;7.25;78.73;100048.05;227145;1198;141322;-71
2021/11/19 00:22:12;;;;;;;;;;;;;;;;;;;;;
2021/11/19 00:27:37;;;;;;;11.60;9.00;;;;;;;7.14;79.34;100034.51;228379;1198;140161;-71
2021/11/19 00:32:45;;;;;;;10.80;6.60;;;;;;;7.12;79.46;100040.86;226459;1198;140287;-71
2021/11/19 00:37:51;;;;;;;16.70;8.70;;;;;;;7.08;79.76;100031.33;227059;1198;139114;-69
2021/11/19 00:43:27;;;;;;;11.50;7.90;;;;;;;7.09;79.71;100023.61;226928;1200;140048;-70
2021/11/19 00:48:34;;;;;;;8.60;7.50;;;;;;;7.02;80.55;100021.38;227084;1199;140940;-70
2021/11/19 00:53:39;;;;;;;5.80;4.80;;;;;;;7.00;80.25;100024.50;227034;1198;140483;-70
2021/11/19 00:58:52;;;;;;;14.60;9.70;;;;;;;7.02;80.21;100024.58;226295;1198;139240;-70
2021/11/19 01:03:58;;;;;;;10.70;6.70;;;;;;;6.98;80.84;100014.05;226620;1198;139491;-69
2021/11/19 01:09:09;;;;;;;9.20;7.80;;;;;;;6.96;80.90;100000.72;227426;1198;140744;-70
2021/11/19 01:14:20;;;;;;;11.00;8.40;;;;;;;6.95;81.22;99999.45;226898;1198;161385;-70
2021/11/19 01:19:32;;;;;;;12.20;6.90;;;;;;;6.94;81.29;100002.67;227031;1198;139840;-70
2021/11/19 01:24:44;;;;;;;7.40;5.30;;;;;;;6.97;81.13;99996.45;228199;1198;140610;-69
2021/11/19 01:29:49;;;;;;;7.10;5.40;;;;;;;6.99;81.21;100002.64;227737;1198;139263;-68
2021/11/19 01:34:54;;;;;;;6.10;5.50;;;;;;;6.99;81.90;99997.06;227041;1198;140864;-69
2021/11/19 01:39:58;;;;;;;7.60;5.30;;;;;;;7.01;81.42;99992.33;227263;1198;142775;-68
2021/11/19 01:45:38;;;;;;;;;;;;;;;;;;;;;
2021/11/19 01:51:25;;;;;;;6.00;5.30;;;;;;;6.95;81.61;99978.86;226900;1198;139468;-70
2021/11/19 01:56:47;;;;;;;;;;;;;;;;;;;;;
2021/11/19 02:01:52;;;;;;;6.80;4.80;;;;;;;6.96;82.17;99966.67;229386;1198;139681;-69
2021/11/19 02:07:04;;;;;;;4.90;4.50;;;;;;;6.98;81.96;99965.61;229281;1198;140708;-71
2021/11/19 02:12:36;;;;;;;6.00;4.40;;;;;;;6.97;82.49;99958.36;229072;1198;139883;-71
2021/11/19 02:17:40;;;;;;;6.20;5.50;;;;;;;7.03;82.09;99955.31;228594;1198;139762;-71
2021/11/19 02:22:48;;;;;;;5.20;4.70;;;;;;;7.04;82.05;99952.74;228124;1190;140169;-69
2021/11/19 02:28:07;;;;;;;6.10;5.10;;;;;;;7.04;82.27;99949.06;228018;1198;140638;-71
2021/11/19 02:33:13;;;;;;;4.60;4.20;;;;;;;7.08;82.69;99945.96;228428;1198;140118;-70
2021/11/19 02:38:18;;;;;;;4.10;3.80;;;;;;;7.07;82.59;99939.40;227811;1198;140231;-70
2021/11/19 02:43:33;;;;;;;4.60;4.20;;;;;;;7.10;82.41;99933.52;227438;1198;152381;-73
2021/11/19 02:48:36;;;;;;;4.60;3.90;;;;;;;7.09;82.68;99941.03;226911;1198;139030;-71
2021/11/19 02:53:57;;;;;;;;;;;;;;;;;;;;;
2021/11/19 02:59:02;;;;;;;4.80;4.50;;;;;;;7.13;82.99;99946.00;226471;1198;141859;-71
2021/11/19 03:04:46;;;;;;;4.20;3.90;;;;;;;7.10;82.91;99962.45;227167;1200;139812;-72
2021/11/19 03:10:01;;;;;;;6.00;5.50;;;;;;;7.13;83.23;99942.33;226589;1198;141623;-78
2021/11/19 03:15:11;;;;;;;4.30;3.70;;;;;;;7.16;83.33;99930.42;226347;1198;139866;-78
2021/11/19 03:20:24;;;;;;;5.40;4.70;;;;;;;7.16;83.30;99935.03;227485;1198;139987;-72
2021/11/19 03:26:07;;;;;;;;;;;;;;;;;;;;;
2021/11/19 03:31:17;;;;;;;5.40;4.90;;;;;;;7.20;83.54;99920.23;227530;1198;139637;-70
2021/11/19 03:36:30;;;;;;;5.60;5.20;;;;;;;7.26;83.66;99919.52;227645;1198;139720;-73
2021/11/19 03:41:42;;;;;;;7.20;6.50;;;;;;;7.29;83.68;99909.96;226555;1199;140068;-72
2021/11/19 03:47:23;;;;;;;5.70;5.20;;;;;;;7.29;83.72;99911.18;227411;1198;140128;-72
2021/11/19 03:52:32;;;;;;;6.50;5.90;;;;;;;7.30;83.82;99912.82;226403;1198;142467;-72
2021/11/19 03:57:58;;;;;;;5.40;4.70;;;;;;;7.30;83.94;99907.67;228103;1198;140744;-73
2021/11/19 04:03:02;;;;;;;6.40;5.70;;;;;;;7.36;83.81;99912.29;227178;1191;140876;-72
2021/11/19 04:08:14;;;;;;;5.30;4.90;;;;;;;7.41;83.91;99914.42;229137;1198;140575;-69
2021/11/19 04:13:19;;;;;;;8.20;6.50;;;;;;;7.40;84.03;99918.48;228966;1190;140478;-69
2021/11/19 04:18:23;;;;;;;8.60;6.30;;;;;;;7.46;83.88;99925.35;229352;1198;139869;-73
2021/11/19 04:23:49;;;;;;;;;;;;;;;;;;;;;
2021/11/19 04:29:09;;;;;;;6.90;6.30;;;;;;;7.56;84.23;99935.23;228977;1198;139207;-73
2021/11/19 04:34:21;;;;;;;8.20;6.90;;;;;;;7.63;83.83;99933.16;228002;1198;140765;-73
2021/11/19 04:39:24;;;;;;;8.30;6.60;;;;;;;7.68;84.09;99946.57;227421;1197;139687;-74
2021/11/19 04:44:31;;;;;;;6.20;5.60;;;;;;;7.68;84.06;99950.80;226780;1198;140001;-73
2021/11/19 04:49:35;;;;;;;7.50;6.60;;;;;;;7.70;84.31;99946.31;227028;1198;139658;-70
2021/11/19 04:54:39;;;;;;;7.00;6.40;;;;;;;7.71;84.46;99935.94;227089;1198;142683;-73
2021/11/19 04:59:44;;;;;;;6.20;5.00;;;;;;;7.74;84.54;99935.48;227353;1198;139328;-73
2021/11/19 05:04:48;;;;;;;5.30;4.90;;;;;;;7.79;84.34;99939.59;226561;1183;139756;-73
2021/11/19 05:09:51;;;;;;;5.70;5.20;;;;;;;7.80;84.26;99936.96;227482;1198;141035;-74
2021/11/19 05:14:54;;;;;;;5.10;4.70;;;;;;;7.81;84.41;99937.94;228121;1198;140594;-69
2021/11/19 05:19:59;;;;;;;5.80;5.30;;;;;;;7.86;84.55;99937.23;226415;1200;139621;-73
2021/11/19 05:25:04;;;;;;;6.30;5.80;;;;;;;7.90;84.44;99941.30;227238;1198;140661;-75
2021/11/19 05:30:08;;;;;;;7.40;6.70;;;;;;;7.91;84.50;99932.48;226617;1198;150331;-75
2021/11/19 05:35:22;;;;;;;7.80;7.10;;;;;;;7.94;84.61;99936.28;227415;1198;139879;-76
2021/11/19 05:40:26;;;;;;;6.10;5.60;;;;;;;7.99;84.64;99931.34;227361;1198;139403;-73
2021/11/19 05:45:31;;;;;;;7.40;6.70;;;;;;;7.99;84.73;99942.61;227619;1198;140588;-72
2021/11/19 05:50:38;;;;;;;8.30;7.20;;;;;;;8.04;84.66;99942.10;226833;1200;140037;-73
2021/11/19 05:55:45;;;;;;;9.00;7.00;;;;;;;8.06;84.82;99944.66;229427;1198;140901;-74
2021/11/19 06:00:53;;;;;;;6.20;5.60;;;;;;;8.10;84.87;99943.10;228730;1188;140315;-73
2021/11/19 06:05:56;;;;;;;;;;;;;;;8.14;84.83;99936.70;228060;1198;140254;-74
2021/11/19 06:11:11;;;;;;;10.10;8.90;;;;;;;8.13;85.12;99935.89;230075;1198;126161;-74
2021/11/19 06:16:19;;;;;;;5.00;4.40;;;;;;;8.20;85.17;99926.95;228396;1198;152897;-73
2021/11/19 06:21:26;;;;;;;10.00;8.90;;;;;;;8.24;85.02;99934.73;229350;1198;139536;-75
2021/11/19 06:26:31;;;;;;;10.90;8.30;;;;;;;8.30;84.93;99941.54;229122;1198;141328;-73
2021/11/19 06:31:38;;;;;;;11.50;8.70;;;;;;;8.38;84.82;99950.09;228647;1198;140896;-75
2021/11/19 06:36:55;;;;;;;9.70;8.80;;;;;;;8.40;85.05;99961.69;227513;1198;141769;-73
2021/11/19 06:42:23;;;;;;;;;;;;;;;;;;;;;
2021/11/19 06:47:27;;;;;;;12.30;8.50;;;;;;;8.45;85.03;99965.14;227802;1198;140335;-74
2021/11/19 06:52:30;;;;;;;11.40;8.70;;;;;;;8.44;85.18;99966.80;228162;1198;140458;-75
2021/11/19 06:57:34;;;;;;;10.20;8.60;;;;;;;8.50;85.23;99976.05;226429;1198;139834;-73
2021/11/19 07:02:38;;;;;;;11.30;9.60;;;;;;;8.55;85.38;99978.55;226442;1198;140266;-73
2021/11/19 07:07:42;;;;;;;8.40;7.60;;;;;;;8.55;85.43;99982.48;227149;1198;141311;-70
2021/11/19 07:12:45;;;;;;;10.90;9.10;;;;;;;8.60;85.28;99981.61;226457;1198;141423;-73
2021/11/19 07:17:50;;;;;;;11.80;7.80;;;;;;;8.67;85.44;99982.91;226351;1198;140907;-74
2021/11/19 07:22:55;;;;;;;9.80;8.20;;;;;;;8.70;85.66;99984.52;226563;1198;140364;-73
2021/11/19 07:28:01;;;;;;;10.30;7.30;;;;;;;8.71;85.50;99979.29;227552;1198;140653;-73
2021/11/19 07:33:05;;;;;;;8.80;7.90;;;;;;;8.72;85.19;99983.40;227032;1198;142424;-71
2021/11/19 07:38:09;;;;;;;8.10;7.30;;;;;;;8.73;85.55;99986.14;227456;1198;141630;-73
2021/11/19 07:43:15;;;;;;;9.70;8.60;;;;;;;8.76;85.50;99991.10;226539;1198;140752;-73
2021/11/19 07:48:23;;;;;;;13.10;8.50;;;;;;;8.80;85.44;99994.52;227292;1198;142745;-72
2021/11/19 07:53:29;;;;;;;6.20;5.00;;;;;;;8.82;85.79;99994.05;227514;1198;141440;-72
2021/11/19 07:58:32;;;;;;;8.90;7.60;;;;;;;8.87;85.67;99995.79;227863;1198;141140;-73
2021/11/19 08:03:35;;;;;;;12.00;8.60;;;;;;;8.92;85.63;99996.89;227937;1198;139929;-73
2021/11/19 08:08:39;;;;;;;9.70;7.40;;;;;;;8.96;85.58;100001.28;227904;1198;140797;-74
2021/11/19 08:13:43;;;;;;;6.70;5.30;;;;;;;9.03;85.35;100006.42;229170;1198;141523;-74
2021/11/19 08:18:51;;;;;;;8.30;7.40;;;;;;;9.04;85.34;100009.68;229179;1198;140183;-74
2021/11/19 08:24:20;;;;;;;6.90;5.70;;;;;;;9.11;85.43;100017.73;229327;1198;140737;-74
2021/11/19 08:29:27;;;;;;;11.40;7.10;;;;;;;9.15;85.28;100018.85;227752;1198;141617;-74
2021/11/19 08:34:30;;;;;;;8.90;6.10;;;;;;;9.17;85.41;100017.15;229315;1190;141002;-74
2021/11/19 08:39:34;;;;;;;9.10;6.70;;;;;;;9.23;85.27;100015.85;227512;1200;141416;-74
2021/11/19 08:44:46;;;;;;;6.60;5.70;;;;;;;9.22;85.37;100014.55;227363;1198;140032;-73
2021/11/19 08:50:15;;;;;;;7.00;5.60;;;;;;;9.25;85.38;100019.95;228011;1185;139875;-74
2021/11/19 08:55:29;;;;;;;6.40;4.60;;;;;;;9.29;85.39;100018.12;227831;1199;139822;-73
2021/11/19 09:00:36;;;;;;;4.80;3.70;;;;;;;9.29;85.52;100020.98;226373;1198;141130;-72
2021/11/19 09:05:44;;;;;;;6.60;5.20;;;;;;;9.31;85.78;100034.31;227386;1198;230544;-73
2021/11/19 09:11:06;;;;;;;6.30;5.70;;;;;;;9.32;85.72;100030.25;227123;1198;208322;-74
2021/11/19 09:16:12;;;;;;;7.00;5.70;;;;;;;9.39;85.70;100024.39;226202;1198;140506;-73
2021/11/19 09:21:25;;;;;;;8.60;7.30;;;;;;;9.45;85.76;100022.45;226629;1198;139733;-74
2021/11/19 09:27:09;;;;;;;9.60;7.70;;;;;;;9.47;85.82;100020.05;227897;1198;139352;-74
2021/11/19 09:32:17;;;;;;;8.10;7.30;;;;;;;9.51;85.78;100014.83;227376;1198;140597;-71
2021/11/19 09:37:25;;;;;;;;;;;;;;;9.52;85.89;100022.22;226915;1198;140623;-71
2021/11/19 09:43:08;;;;;;;9.10;6.40;;;;;;;9.54;85.90;100018.65;226766;1199;128808;-73
2021/11/19 09:49:05;;;;;;;8.90;7.30;;;;;;;9.57;85.74;100015.18;227510;1199;141560;-73
2021/11/19 09:54:28;;;;;;;8.60;6.60;;;;;;;9.58;85.83;100016.44;227750;1198;139882;-74
2021/11/19 10:00:22;;;;;;;10.50;7.50;;;;;;;9.62;85.81;100019.42;227583;1198;140328;-74
2021/11/19 10:06:15;;;;;;;9.30;7.10;;;;;;;9.66;86.00;100017.17;227829;1198;139829;-74
2021/11/19 10:11:59;;;;;;;11.80;7.30;;;;;;;9.73;85.88;100014.40;227986;1198;141146;-73
2021/11/19 10:17:09;;;;;;;10.90;8.00;;;;;;;9.75;85.92;100005.90;227945;1198;142760;-75
2021/11/19 10:22:32;;;;;;;8.40;7.50;;;;;;;9.84;86.00;100004.30;229078;1198;140564;-74
2021/11/19 10:27:58;;;;;;;11.50;8.60;;;;;;;9.88;85.89;100002.02;228484;1198;140956;-74
2021/11/19 10:33:25;;;;;;;10.80;7.30;;;;;;;9.99;85.86;100000.20;228366;1198;141112;-75
2021/11/19 11:40:30;;;;;;;11.60;9.30;;;;;;;10.29;85.06;99974.20;231677;1209;635700;-76
2021/11/19 11:45:45;;;;;;;6.40;5.40;;;;;;;10.26;85.52;99966.96;227922;1197;138109;-73
2021/11/19 11:51:36;;;;;;;9.40;8.50;;;;;;;10.24;85.25;99964.52;228589;1193;138756;-75
2021/11/19 11:56:45;;;;;;;10.20;8.70;;;;;;;10.25;85.51;99971.59;228516;1193;138534;-73
2021/11/19 12:03:03;;;;;;;;;;;;;;;;;;;;;
2021/11/19 12:08:54;;;;;;;;;;;;;;;;;;;;;
2021/11/19 12:14:24;;;;;;;9.50;7.50;;;;;;;10.23;85.34;99966.98;227804;1193;150395;-74
2021/11/19 12:19:46;;;;;;;11.50;6.90;;;;;;;10.21;85.45;99963.95;229371;1195;137694;-76
2021/11/19 12:25:26;;;;;;;;;;;;;;;;;;;;;
2021/11/19 12:30:54;;;;;;;7.80;6.50;;;;;;;10.27;85.56;99971.11;230398;1194;138393;-75
2021/11/19 12:36:26;;;;;;;8.60;5.40;;;;;;;10.27;85.34;99974.61;229992;1188;139016;-74
2021/11/19 12:41:30;;;;;;;6.90;6.20;;;;;;;10.25;85.25;99970.95;230434;1194;140711;-75
2021/11/19 12:47:07;;;;;;;8.90;6.70;;;;;;;10.25;85.58;99978.68;228808;1193;139180;-74
2021/11/19 12:52:20;;;;;;;9.40;7.60;;;;;;;10.27;85.55;99979.90;228683;1193;139503;-74
2021/11/19 12:58:21;;;;;;;6.80;5.20;;;;;;;10.27;85.50;99978.50;228855;1194;141949;-75
2021/11/19 13:03:52;;;;;;;10.80;7.80;;;;;;;10.24;85.74;99974.64;228345;1195;139040;-73
2021/11/19 13:08:58;;;;;;;10.30;6.40;;;;;;;10.24;85.73;99973.63;228892;1194;140197;-75
2021/11/19 13:14:32;;;;;;;12.00;8.60;;;;;;;10.22;85.73;99969.09;228063;1195;139162;-73
2021/11/19 13:19:41;;;;;;;7.60;6.70;;;;;;;10.19;85.76;99971.76;228094;1195;139482;-71
2021/11/19 13:25:10;;;;;;;14.80;7.80;;;;;;;10.21;85.69;99964.52;228490;1194;140348;-74
2021/11/19 13:30:34;;;;;;;10.70;8.00;;;;;;;10.17;85.81;99962.83;229419;1195;138705;-74
2021/11/19 13:35:39;;;;;;;13.50;8.40;;;;;;;10.23;85.98;99969.66;229186;1194;139673;-74
2021/11/19 13:40:51;;;;;;;8.70;7.80;;;;;;;10.26;85.92;99965.92;228789;1193;139827;-72
2021/11/19 13:46:06;;;;;;;9.70;7.40;;;;;;;10.27;85.88;99971.16;228204;1194;138374;-73
2021/11/19 13:51:25;;;;;;;9.80;8.10;;;;;;;10.28;85.86;99974.80;229314;1194;140522;-76
2021/11/19 13:57:00;;;;;;;10.50;7.00;;;;;;;10.27;85.92;99966.53;228681;1193;139027;-74
2021/11/19 14:02:19;;;;;;;11.00;7.30;;;;;;;10.28;85.83;99965.65;227959;1193;139818;-74
2021/11/19 14:08:03;;;;;;;11.00;9.80;;;;;;;10.26;86.06;99965.06;228956;1193;142271;-71
2021/11/19 14:13:45;;;;;;;8.00;6.60;;;;;;;10.28;85.97;99965.90;228539;1195;140741;-75
2021/11/19 14:19:34;;;;;;;8.30;7.50;;;;;;;10.29;85.75;99970.85;228383;1193;139180;-76
2021/11/19 14:25:06;;;;;;;9.90;8.00;;;;;;;10.32;85.85;99981.59;228738;1195;139070;-72
2021/11/19 14:30:41;;;;;;;9.00;7.80;;;;;;;10.30;85.63;99974.64;230144;1186;139821;-74
2021/11/19 14:36:00;;;;;;;8.60;7.70;;;;;;;10.31;85.83;99986.07;230425;1193;139190;-71
2021/11/19 14:41:17;;;;;;;13.00;7.70;;;;;;;10.33;85.81;99985.14;229951;1193;139410;-72
2021/11/19 14:46:45;;;;;;;;;;;;;;;;;;;;;
2021/11/19 14:52:56;;;;;;;;;;;;;;;;;;;;;
2021/11/19 14:58:40;;;;;;;8.60;6.90;;;;;;;10.49;85.67;99989.20;228661;1195;140629;-79
2021/11/19 15:04:09;;;;;;;9.70;6.50;;;;;;;10.49;85.80;99986.86;228349;1193;139773;-76
2021/11/19 15:10:29;;;;;;;6.80;6.20;;;;;;;10.48;85.68;99987.58;229354;1180;138831;-76
2021/11/19 15:15:49;;;;;;;6.70;6.10;;;;;;;10.46;85.66;99978.41;228517;1193;139674;-69
2021/11/19 15:21:22;;;;;;;6.70;6.00;;;;;;;10.46;85.79;99978.46;227772;1196;139934;-71
2021/11/19 15:26:45;;;;;;;9.30;8.00;;;;;;;10.45;85.65;99971.91;228034;1193;140152;-71
2021/11/19 15:32:40;;;;;;;;;;;;;;;;;;;;;
2021/11/19 15:38:20;;;;;;;8.10;7.30;;;;;;;10.46;85.60;99973.86;228471;1193;140703;-70
2021/11/19 15:43:28;;;;;;;8.60;7.00;;;;;;;10.43;85.67;99973.58;228036;1193;138485;-72
2021/11/19 15:49:14;;;;;;;6.70;6.00;;;;;;;10.41;85.87;99973.65;229115;1192;139286;-71
2021/11/19 15:54:50;;;;;;;9.40;7.40;;;;;;;10.43;85.80;99971.48;228191;1193;139955;-72
2021/11/19 16:00:43;;;;;;;11.30;6.50;;;;;;;10.43;85.92;99974.39;228629;1192;141261;-71
2021/11/19 16:06:41;;;;;;;6.80;6.00;;;;;;;10.43;85.93;99973.54;229159;1192;140664;-71
2021/11/19 16:12:03;;;;;;;;;;;;;;;;;;;;;
2021/11/19 16:17:12;;;;;;;7.80;6.10;;;;;;;10.42;85.91;99973.89;229764;1192;138877;-71
2021/11/19 16:22:31;;;;;;;7.10;6.40;;;;;;;10.39;85.77;99969.55;230293;1192;138851;-70
2021/11/19 16:27:45;;;;;;;7.90;7.10;;;;;;;10.40;85.82;99979.00;229920;1192;139044;-70
2021/11/19 16:32:50;;;;;;;6.30;5.50;;;;;;;10.40;85.69;99967.02;230610;1192;141489;-70
2021/11/19 16:37:55;;;;;;;6.10;5.60;;;;;;;10.41;85.58;99964.21;230642;1192;139426;-71
2021/11/19 16:43:00;;;;;;;5.40;4.40;;;;;;;10.40;85.77;99958.42;230308;1192;140468;-71
2021/11/19 16:48:11;;;;;;;5.50;4.90;;;;;;;10.41;85.80;99958.88;228572;1186;139657;-72
2021/11/19 16:53:18;;;;;;;7.30;6.60;;;;;;;10.41;85.70;99966.40;228748;1192;140998;-71
2021/11/19 16:58:25;;;;;;;5.90;5.40;;;;;;;10.38;85.83;99968.89;229184;1193;140194;-72
2021/11/19 17:03:31;;;;;;;6.50;5.90;;;;;;;10.40;86.09;99961.32;228912;1192;139746;-70
2021/11/19 17:08:54;;;;;;;6.20;5.60;;;;;;;10.45;86.18;99969.41;228181;1192;140712;-71
2021/11/19 17:14:00;;;;;;;7.70;6.00;;;;;;;10.44;86.00;99968.17;228804;1192;139911;-74
2021/11/19 17:20:00;;;;;;;6.40;5.30;;;;;;;10.43;86.05;99966.07;228691;1192;140594;-77
2021/11/19 17:26:00;;;;;;;;;;;;;;;;;;;;;
2021/11/19 17:31:08;;;;;;;7.60;6.50;;;;;;;10.35;86.17;99953.67;228858;1192;139190;-78
2021/11/19 17:36:30;;;;;;;8.60;6.20;;;;;;;10.35;86.32;99961.21;228994;1192;138888;-75
2021/11/19 17:42:21;;;;;;;6.10;5.30;;;;;;;10.37;86.26;99965.73;229523;1192;142093;-74
2021/11/19 17:48:06;;;;;;;7.40;6.00;;;;;;;10.39;86.25;99957.05;229155;1192;139418;-72
2021/11/19 17:53:11;;;;;;;5.80;5.30;;;;;;;10.38;86.17;99947.67;228878;1192;140370;-72
2021/11/19 17:58:17;;;;;;;7.40;6.70;;;;;;;10.36;86.07;99942.88;229278;1192;139593;-73
2021/11/19 18:03:47;;;;;;;8.50;7.30;;;;;;;10.32;86.41;99945.02;229468;1192;139934;-72
2021/11/19 18:08:52;;;;;;;7.60;5.40;;;;;;;10.32;86.32;99949.23;229758;1192;139367;-72
2021/11/19 18:13:59;;;;;;;7.90;6.10;;;;;;;10.33;86.28;99950.95;229724;1192;139062;-73
2021/11/19 18:19:11;;;;;;;;;;;;;;;10.33;86.39;99955.49;229203;1192;140893;-72
2021/11/19 18:24:53;;;;;;;;;;;;;;;;;;;;;
2021/11/19 18:30:01;;;;;;;7.90;5.90;;;;;;;10.37;86.37;99955.45;230185;1191;139417;-72
2021/11/19 18:35:26;;;;;;;;;;;;;;;;;;;;;
2021/11/19 18:41:06;;;;;;;7.60;6.90;;;;;;;10.45;86.40;99954.07;230312;1192;140861;-72
2021/11/19 18:46:17;;;;;;;8.50;6.80;;;;;;;10.45;86.09;99958.02;229977;1192;139776;-71
2021/11/19 18:51:37;;;;;;;7.90;5.40;;;;;;;10.49;86.25;99960.14;229899;1192;140215;-72
2021/11/19 18:57:10;;;;;;;;;;;;;;;;;;;;;
2021/11/19 19:02:18;;;;;;;6.20;5.60;;;;;;;10.53;85.98;99952.23;230160;1192;140002;-72
2021/11/19 19:07:25;;;;;;;8.80;6.70;;;;;;;10.52;86.13;99958.57;229019;1192;159220;-70
2021/11/19 19:12:50;;;;;;;8.90;6.60;;;;;;;10.56;86.12;99954.57;228624;1192;140235;-70
2021/11/19 19:18:04;;;;;;;5.10;4.60;;;;;;;10.58;85.78;99951.30;229604;1192;139870;-71
2021/11/19 19:23:18;;;;;;;7.50;6.20;;;;;;;10.55;85.86;99945.08;228765;1192;138201;-74
2021/11/19 19:29:00;;;;;;;;;;;;;;;;;;;;;
2021/11/19 19:34:12;;;;;;;13.10;7.00;;;;;;;10.56;85.72;99927.11;228412;1192;139918;-75
2021/11/19 19:39:47;;;;;;;6.30;5.70;;;;;;;10.57;85.76;99927.61;229015;1192;139767;-76
2021/11/19 19:44:53;;;;;;;6.80;5.90;;;;;;;10.55;85.65;99932.36;229322;1192;141905;-75
2021/11/19 19:50:33;;;;;;;9.90;6.60;;;;;;;10.52;85.58;99930.80;229368;1192;140070;-72
2021/11/19 19:55:42;;;;;;;8.40;5.70;;;;;;;10.58;85.65;99936.33;229892;1184;139142;-73
2021/11/19 20:00:53;;;;;;;7.00;5.20;;;;;;;10.60;85.55;99935.48;229550;1191;139496;-72
2021/11/19 20:06:02;;;;;;;7.10;4.30;;;;;;;10.64;85.29;99944.44;229483;1192;138868;-73
2021/11/19 20:11:12;;;;;;;7.50;5.80;;;;;;;10.63;85.12;99950.28;229600;1192;139848;-75
2021/11/19 20:16:25;;;;;;;7.10;5.90;;;;;;;10.64;85.10;99954.45;230167;1191;140182;-76
2021/11/19 20:21:31;;;;;;;7.10;5.20;;;;;;;10.67;84.75;99947.88;229659;1190;160978;-74
2021/11/19 20:26:40;;;;;;;5.20;4.50;;;;;;;10.68;84.84;99951.30;230897;1191;139217;-79
2021/11/19 20:31:59;;;;;;;7.20;4.50;;;;;;;10.71;84.67;99946.92;230799;1191;139409;-76
2021/11/19 20:37:15;;;;;;;4.70;4.10;;;;;;;10.73;84.69;99945.80;230405;1192;139850;-74
2021/11/19 20:42:24;;;;;;;5.50;5.00;;;;;;;10.75;84.15;99934.55;230924;1192;140859;-75
2021/11/19 20:47:48;;;;;;;;;;;;;;;;;;;;;
2021/11/19 20:53:20;;;;;;;7.40;4.50;;;;;;;10.78;83.97;99933.70;230371;1192;139716;-78
2021/11/19 20:58:27;;;;;;;4.80;3.80;;;;;;;10.81;83.76;99926.26;229842;1191;140788;-72
2021/11/19 21:03:32;;;;;;;6.50;5.70;;;;;;;10.80;83.78;99924.64;229425;1192;139619;-74
2021/11/19 21:08:38;;;;;;;12.30;6.00;;;;;;;10.82;83.53;99928.63;230136;1192;139691;-74
2021/11/19 21:13:45;;;;;;;9.40;5.30;;;;;;;10.81;83.61;99931.77;228539;1192;140078;-69
2021/11/19 21:18:53;;;;;;;5.30;4.70;;;;;;;10.79;83.68;99930.08;229054;1192;139476;-69
2021/11/19 21:23:59;;;;;;;5.40;4.90;;;;;;;10.77;83.15;99929.32;229853;1192;140111;-70
2021/11/19 21:29:05;;;;;;;5.50;4.30;;;;;;;10.72;83.26;99923.88;229276;1192;139962;-72
2021/11/19 21:34:11;;;;;;;9.00;4.80;;;;;;;10.72;83.10;99916.56;229120;1192;140905;-71
2021/11/19 21:39:16;;;;;;;6.00;4.70;;;;;;;10.73;83.25;99911.41;228919;1192;140201;-75
2021/11/19 21:44:25;;;;;;;7.90;5.40;;;;;;;10.72;83.12;99901.34;229722;1192;140133;-72
2021/11/19 21:49:54;;;;;;;10.50;6.50;;;;;;;10.73;82.91;99903.47;228986;1193;140061;-76
2021/11/19 21:55:40;;;;;;;7.80;5.50;;;;;;;10.68;82.85;99904.75;229597;1191;139564;-69
2021/11/19 22:00:48;;;;;;;5.80;4.80;;;;;;;10.68;82.73;99910.13;229760;1192;139099;-70
2021/11/19 22:06:00;;;;;;;8.20;5.10;;;;;;;10.67;82.83;99913.27;228819;1192;138983;-70
2021/11/19 22:11:11;;;;;;;6.40;4.50;;;;;;;10.67;82.73;99926.23;229613;1192;138808;-73
2021/11/19 22:16:19;;;;;;;8.80;4.90;;;;;;;10.68;82.48;99920.59;229914;1191;140069;-71
2021/11/19 22:21:32;;;;;;;6.70;5.80;;;;;;;10.67;82.72;99918.92;228414;1192;139960;-71
2021/11/19 22:26:40;;;;;;;7.30;5.60;;;;;;;10.66;82.24;99913.02;230416;1192;139649;-69
2021/11/19 22:31:53;;;;;;;8.20;6.00;;;;;;;10.66;82.38;99921.40;230099;1192;140029;-70
2021/11/19 22:37:00;;;;;;;6.90;6.00;;;;;;;10.65;82.46;99926.95;230893;1192;139539;-70
2021/11/19 22:42:08;;;;;;;12.20;6.50;;;;;;;10.65;82.18;99929.91;230766;1191;140097;-71
2021/11/19 22:47:17;;;;;;;12.10;5.80;;;;;;;10.66;82.13;99941.83;230921;1192;140797;-73
2021/11/19 22:52:23;;;;;;;7.50;4.10;;;;;;;10.64;82.09;99940.55;230459;1192;140235;-71
2021/11/19 22:57:30;;;;;;;9.90;6.10;;;;;;;10.67;81.83;99932.41;229610;1192;247374;-72
2021/11/19 23:02:37;;;;;;;6.30;5.20;;;;;;;10.67;82.06;99921.55;227998;1193;140219;-72
2021/11/19 23:07:44;;;;;;;8.10;4.90;;;;;;;10.63;82.16;99923.13;229194;1192;139852;-70
2021/11/19 23:13:01;;;;;;;7.90;4.80;;;;;;;10.62;81.89;99924.80;229862;1192;139723;-71
2021/11/19 23:18:10;;;;;;;10.80;5.30;;;;;;;10.57;81.77;99907.23;229411;1192;140738;-71
2021/11/19 23:23:16;;;;;;;6.50;5.80;;;;;;;10.55;81.86;99896.97;229308;1192;140943;-72
2021/11/19 23:28:26;;;;;;;8.20;5.00;;;;;;;10.52;81.66;99890.75;229087;1192;139912;-69
2021/11/19 23:33:35;;;;;;;7.70;4.10;;;;;;;10.52;81.80;99890.21;229080;1192;139803;-72
2021/11/19 23:38:46;;;;;;;7.10;3.80;;;;;;;10.55;81.77;99889.60;230491;1192;139655;-75
2021/11/19 23:43:53;;;;;;;4.90;4.20;;;;;;;10.56;81.73;99893.52;228566;1192;139285;-72
2021/11/19 23:48:57;;;;;;;4.50;4.10;;;;;;;10.59;81.66;99903.99;228609;1192;139080;-71
2021/11/19 23:54:04;;;;;;;4.70;2.90;;;;;;;10.60;81.92;99897.26;229232;1192;140095;-75
2021/11/19 23:59:31;;;;;;;9.70;6.00;;;;;;;10.62;81.49;99891.70;228659;1192;139984;-76
